createdAt,value
2019-03-17T00:00:04.619Z,91.36
2019-03-17T00:01:04.591Z,91.36
2019-03-17T00:02:04.518Z,91.36
2019-03-17T00:03:04.494Z,91.17
2019-03-17T00:04:04.405Z,91.46
2019-03-17T00:05:04.360Z,92.32
2019-03-17T00:06:04.356Z,91.36
2019-03-17T00:07:04.269Z,91.55
2019-03-17T00:08:04.231Z,91.17
2019-03-17T00:09:04.147Z,91.46
2019-03-17T00:10:04.093Z,91.55
2019-03-17T00:11:04.082Z,90.98
2019-03-17T00:12:04.006Z,91.46
2019-03-17T00:13:03.941Z,91.36
2019-03-17T00:14:03.890Z,91.36
2019-03-17T00:15:05.606Z,91.08
2019-03-17T00:16:03.818Z,91.36
2019-03-17T00:17:03.767Z,91.55
2019-03-17T00:18:03.676Z,90.89
2019-03-17T00:19:03.620Z,91.17
2019-03-17T00:20:03.586Z,91.46
2019-03-17T00:21:03.509Z,91.36
2019-03-17T00:22:03.497Z,91.46
2019-03-17T00:23:03.403Z,91.55
2019-03-17T00:24:03.351Z,91.46
2019-03-17T00:25:09.343Z,91.27
2019-03-17T00:26:03.264Z,91.36
2019-03-17T00:27:03.224Z,90.98
2019-03-17T00:28:03.149Z,91.46
2019-03-17T00:29:03.082Z,91.55
2019-03-17T00:30:03.033Z,91.46
2019-03-17T00:31:02.994Z,91.36
2019-03-17T00:32:02.951Z,91.36
2019-03-17T00:33:02.910Z,91.17
2019-03-17T00:34:02.826Z,91.36
2019-03-17T00:35:02.784Z,91.36
2019-03-17T00:36:02.723Z,91.46
2019-03-17T00:37:02.711Z,91.36
2019-03-17T00:38:02.621Z,91.27
2019-03-17T00:39:02.561Z,91.36
2019-03-17T00:40:02.530Z,91.36
2019-03-17T00:41:02.449Z,91.36
2019-03-17T00:42:02.449Z,91.46
2019-03-17T00:43:02.355Z,91.27
2019-03-17T00:44:02.313Z,91.36
2019-03-17T00:45:02.240Z,91.36
2019-03-17T00:46:02.203Z,90.98
2019-03-17T00:47:02.190Z,91.36
2019-03-17T00:48:02.116Z,92.13
2019-03-17T00:49:02.049Z,91.46
2019-03-17T00:50:01.991Z,91.46
2019-03-17T00:51:01.943Z,91.36
2019-03-17T00:52:01.917Z,90.98
2019-03-17T00:53:01.833Z,91.36
2019-03-17T00:54:01.771Z,91.17
2019-03-17T00:55:01.757Z,90.70
2019-03-17T00:56:01.679Z,91.17
2019-03-17T00:57:01.642Z,91.27
2019-03-17T00:58:01.576Z,91.94
2019-03-17T00:59:01.503Z,91.17
2019-03-17T01:00:01.457Z,91.36
2019-03-17T01:01:01.413Z,91.55
2019-03-17T01:02:01.370Z,91.17
2019-03-17T01:03:01.297Z,91.36
2019-03-17T01:04:01.252Z,91.46
2019-03-17T01:05:01.187Z,91.46
2019-03-17T01:06:01.146Z,91.27
2019-03-17T01:07:01.105Z,91.46
2019-03-17T01:08:01.048Z,91.17
2019-03-17T01:09:01.007Z,91.46
2019-03-17T01:10:00.922Z,91.55
2019-03-17T01:11:00.868Z,91.17
2019-03-17T01:12:00.873Z,91.36
2019-03-17T01:13:00.778Z,91.36
2019-03-17T01:14:00.733Z,91.08
2019-03-17T01:15:00.686Z,91.17
2019-03-17T01:16:00.611Z,91.08
2019-03-17T01:17:00.599Z,91.36
2019-03-17T01:18:00.513Z,91.17
2019-03-17T01:19:00.468Z,91.36
2019-03-17T01:20:00.430Z,90.79
2019-03-17T01:21:00.345Z,91.46
2019-03-17T01:22:00.342Z,91.36
2019-03-17T01:23:00.244Z,90.98
2019-03-17T01:24:00.196Z,91.36
2019-03-17T01:25:00.352Z,90.79
2019-03-17T01:26:00.081Z,91.36
2019-03-17T01:27:00.057Z,90.98
2019-03-17T01:27:59.981Z,91.55
2019-03-17T01:28:59.925Z,91.46
2019-03-17T01:29:59.894Z,91.17
2019-03-17T01:30:59.837Z,91.27
2019-03-17T01:31:59.786Z,91.27
2019-03-17T01:32:59.749Z,91.55
2019-03-17T01:33:59.668Z,91.27
2019-03-17T01:35:08.529Z,90.89
2019-03-17T01:35:59.553Z,90.98
2019-03-17T01:36:59.561Z,91.17
2019-03-17T01:37:59.477Z,91.17
2019-03-17T01:38:59.401Z,91.36
2019-03-17T01:39:59.346Z,91.27
2019-03-17T01:40:59.297Z,90.60
2019-03-17T01:41:59.245Z,91.46
2019-03-17T01:42:59.240Z,91.17
2019-03-17T01:43:59.209Z,91.27
2019-03-17T01:44:59.107Z,91.46
2019-03-17T01:45:59.031Z,91.36
2019-03-17T01:46:58.968Z,90.60
2019-03-17T01:47:58.957Z,91.08
2019-03-17T01:48:58.885Z,91.27
2019-03-17T01:49:58.843Z,91.08
2019-03-17T01:50:58.792Z,91.36
2019-03-17T01:51:58.726Z,91.17
2019-03-17T01:52:58.709Z,91.27
2019-03-17T01:53:58.616Z,91.36
2019-03-17T01:54:58.601Z,91.27
2019-03-17T01:55:58.549Z,91.46
2019-03-17T01:56:58.446Z,91.08
2019-03-17T01:57:58.435Z,91.08
2019-03-17T01:58:58.356Z,91.55
2019-03-17T01:59:58.316Z,90.89
2019-03-17T02:00:58.245Z,90.12
2019-03-17T02:01:58.240Z,90.03
2019-03-17T02:02:58.168Z,90.79
2019-03-17T02:03:58.088Z,90.98
2019-03-17T02:04:58.049Z,91.36
2019-03-17T02:05:57.992Z,91.17
2019-03-17T02:06:57.923Z,91.46
2019-03-17T02:07:57.902Z,91.46
2019-03-17T02:08:57.831Z,90.89
2019-03-17T02:09:57.790Z,91.17
2019-03-17T02:10:57.707Z,91.27
2019-03-17T02:11:57.661Z,91.08
2019-03-17T02:12:57.635Z,91.27
2019-03-17T02:13:57.536Z,91.27
2019-03-17T02:14:57.500Z,91.55
2019-03-17T02:15:57.451Z,92.13
2019-03-17T02:16:57.383Z,92.60
2019-03-17T02:17:57.395Z,91.94
2019-03-17T02:18:57.302Z,91.89
2019-03-17T02:19:57.291Z,92.08
2019-03-17T02:20:57.181Z,92.36
2019-03-17T02:21:57.120Z,92.46
2019-03-17T02:22:57.125Z,92.18
2019-03-17T02:23:57.024Z,92.22
2019-03-17T02:24:56.988Z,92.36
2019-03-17T02:25:56.934Z,92.46
2019-03-17T02:26:56.856Z,92.74
2019-03-17T02:27:56.852Z,92.65
2019-03-17T02:28:56.763Z,92.55
2019-03-17T02:29:56.734Z,91.89
2019-03-17T02:30:56.654Z,91.84
2019-03-17T02:31:56.602Z,91.89
2019-03-17T02:32:56.580Z,91.84
2019-03-17T02:33:56.493Z,92.22
2019-03-17T02:34:56.468Z,92.36
2019-03-17T02:35:56.397Z,92.27
2019-03-17T02:36:56.351Z,92.36
2019-03-17T02:37:56.362Z,92.27
2019-03-17T02:38:56.217Z,92.41
2019-03-17T02:39:56.200Z,91.79
2019-03-17T02:40:56.129Z,92.36
2019-03-17T02:41:56.085Z,92.18
2019-03-17T02:42:56.044Z,92.13
2019-03-17T02:43:55.972Z,91.84
2019-03-17T02:44:55.902Z,92.03
2019-03-17T02:45:55.863Z,92.22
2019-03-17T02:46:55.807Z,92.55
2019-03-17T02:47:55.782Z,91.65
2019-03-17T02:48:55.688Z,91.94
2019-03-17T02:49:55.648Z,91.84
2019-03-17T02:50:55.589Z,92.41
2019-03-17T02:51:55.556Z,92.03
2019-03-17T02:52:55.502Z,91.65
2019-03-17T02:53:55.452Z,92.03
2019-03-17T02:54:55.385Z,91.94
2019-03-17T02:55:55.315Z,92.03
2019-03-17T02:56:55.265Z,91.08
2019-03-17T02:57:55.291Z,91.46
2019-03-17T02:58:55.177Z,91.94
2019-03-17T02:59:55.126Z,91.74
2019-03-17T03:00:55.081Z,92.22
2019-03-17T03:01:55.012Z,91.36
2019-03-17T03:02:54.954Z,91.36
2019-03-17T03:03:54.941Z,91.84
2019-03-17T03:04:54.862Z,91.84
2019-03-17T03:05:55.691Z,91.94
2019-03-17T03:06:54.748Z,91.17
2019-03-17T03:07:54.708Z,91.17
2019-03-17T03:08:54.682Z,91.27
2019-03-17T03:09:54.599Z,91.46
2019-03-17T03:10:54.540Z,91.46
2019-03-17T03:11:54.489Z,91.36
2019-03-17T03:12:54.426Z,91.84
2019-03-17T03:13:54.418Z,91.36
2019-03-17T03:14:54.329Z,91.17
2019-03-17T03:15:54.276Z,91.36
2019-03-17T03:16:54.227Z,91.08
2019-03-17T03:17:54.158Z,91.46
2019-03-17T03:18:54.170Z,90.60
2019-03-17T03:19:54.064Z,91.17
2019-03-17T03:20:54.014Z,90.79
2019-03-17T03:21:53.954Z,90.79
2019-03-17T03:22:53.930Z,91.36
2019-03-17T03:23:53.891Z,91.17
2019-03-17T03:24:53.833Z,91.17
2019-03-17T03:25:53.757Z,91.08
2019-03-17T03:26:53.706Z,90.70
2019-03-17T03:27:53.647Z,90.50
2019-03-17T03:28:53.625Z,90.89
2019-03-17T03:29:53.565Z,90.60
2019-03-17T03:30:53.473Z,90.60
2019-03-17T03:31:53.437Z,90.89
2019-03-17T03:32:53.365Z,90.60
2019-03-17T03:33:53.355Z,91.08
2019-03-17T03:34:53.288Z,91.55
2019-03-17T03:36:09.150Z,91.36
2019-03-17T03:36:53.155Z,91.36
2019-03-17T03:37:53.127Z,90.98
2019-03-17T03:38:53.107Z,91.17
2019-03-17T03:39:53.016Z,91.55
2019-03-17T03:40:52.962Z,91.65
2019-03-17T03:41:52.912Z,91.55
2019-03-17T03:42:52.838Z,91.46
2019-03-17T03:43:52.841Z,90.98
2019-03-17T03:44:52.740Z,91.08
2019-03-17T03:45:52.696Z,91.46
2019-03-17T03:46:52.676Z,91.27
2019-03-17T03:47:52.612Z,91.36
2019-03-17T03:48:52.600Z,91.08
2019-03-17T03:49:52.480Z,91.46
2019-03-17T03:50:52.421Z,90.41
2019-03-17T03:51:52.373Z,91.08
2019-03-17T03:52:52.322Z,91.55
2019-03-17T03:53:52.355Z,91.46
2019-03-17T03:54:52.232Z,91.08
2019-03-17T03:55:52.155Z,91.27
2019-03-17T03:56:52.114Z,90.79
2019-03-17T03:57:52.083Z,91.17
2019-03-17T03:58:52.024Z,90.70
2019-03-17T03:59:51.962Z,90.22
2019-03-17T04:00:51.904Z,91.17
2019-03-17T04:01:51.845Z,91.36
2019-03-17T04:02:51.790Z,90.60
2019-03-17T04:03:51.756Z,90.60
2019-03-17T04:04:51.668Z,91.46
2019-03-17T04:05:51.814Z,90.98
2019-03-17T04:06:51.575Z,90.22
2019-03-17T04:07:51.531Z,90.60
2019-03-17T04:08:51.516Z,90.12
2019-03-17T04:09:51.432Z,90.70
2019-03-17T04:10:51.370Z,91.46
2019-03-17T04:11:51.317Z,91.36
2019-03-17T04:12:51.269Z,89.84
2019-03-17T04:13:51.256Z,90.41
2019-03-17T04:14:51.168Z,90.41
2019-03-17T04:15:51.105Z,90.50
2019-03-17T04:16:51.059Z,91.36
2019-03-17T04:17:51.002Z,90.70
2019-03-17T04:18:51.006Z,90.12
2019-03-17T04:19:50.888Z,90.12
2019-03-17T04:20:50.835Z,90.79
2019-03-17T04:21:50.786Z,90.03
2019-03-17T04:22:50.839Z,90.31
2019-03-17T04:23:50.704Z,90.70
2019-03-17T04:24:50.684Z,90.41
2019-03-17T04:25:50.842Z,90.12
2019-03-17T04:26:50.537Z,89.94
2019-03-17T04:27:50.487Z,90.31
2019-03-17T04:28:50.436Z,90.12
2019-03-17T04:29:50.407Z,91.17
2019-03-17T04:30:50.320Z,90.70
2019-03-17T04:31:50.289Z,91.17
2019-03-17T04:32:50.212Z,91.27
2019-03-17T04:33:50.171Z,90.60
2019-03-17T04:34:50.162Z,90.50
2019-03-17T04:35:50.066Z,90.12
2019-03-17T04:36:50.017Z,90.12
2019-03-17T04:37:49.946Z,90.03
2019-03-17T04:38:49.885Z,89.36
2019-03-17T04:39:49.851Z,90.50
2019-03-17T04:40:49.771Z,90.03
2019-03-17T04:41:49.747Z,91.08
2019-03-17T04:42:49.670Z,91.36
2019-03-17T04:43:49.620Z,91.46
2019-03-17T04:44:49.599Z,90.79
2019-03-17T04:45:49.534Z,90.31
2019-03-17T04:46:49.466Z,90.60
2019-03-17T04:47:49.407Z,90.50
2019-03-17T04:48:49.462Z,90.50
2019-03-17T04:49:49.345Z,91.17
2019-03-17T04:50:49.264Z,91.46
2019-03-17T04:51:49.222Z,91.36
2019-03-17T04:52:49.157Z,91.36
2019-03-17T04:53:49.114Z,91.65
2019-03-17T04:54:49.080Z,91.65
2019-03-17T04:55:48.983Z,91.36
2019-03-17T04:56:48.936Z,91.17
2019-03-17T04:57:48.883Z,91.74
2019-03-17T04:58:48.844Z,91.36
2019-03-17T04:59:48.805Z,90.98
2019-03-17T05:00:48.721Z,91.65
2019-03-17T05:01:48.669Z,91.46
2019-03-17T05:02:48.722Z,91.08
2019-03-17T05:03:48.571Z,90.79
2019-03-17T05:04:48.536Z,90.70
2019-03-17T05:05:48.452Z,90.70
2019-03-17T05:06:52.995Z,90.60
2019-03-17T05:07:48.354Z,90.70
2019-03-17T05:08:48.308Z,90.89
2019-03-17T05:09:48.271Z,91.46
2019-03-17T05:10:48.192Z,91.36
2019-03-17T05:11:48.140Z,90.60
2019-03-17T05:12:48.098Z,90.98
2019-03-17T05:13:48.033Z,91.36
2019-03-17T05:14:48.023Z,91.27
2019-03-17T05:15:47.939Z,91.46
2019-03-17T05:16:47.919Z,91.27
2019-03-17T05:17:47.817Z,91.08
2019-03-17T05:18:47.775Z,91.17
2019-03-17T05:19:47.762Z,90.98
2019-03-17T05:20:47.678Z,91.36
2019-03-17T05:21:47.615Z,91.55
2019-03-17T05:22:47.546Z,91.36
2019-03-17T05:23:47.549Z,91.36
2019-03-17T05:24:47.493Z,91.94
2019-03-17T05:25:47.396Z,91.74
2019-03-17T05:26:47.350Z,92.69
2019-03-17T05:27:47.308Z,93.17
2019-03-17T05:28:47.256Z,92.74
2019-03-17T05:29:47.279Z,93.22
2019-03-17T05:30:47.142Z,92.84
2019-03-17T05:31:47.086Z,93.22
2019-03-17T05:32:47.045Z,93.60
2019-03-17T05:33:46.984Z,94.37
2019-03-17T05:34:46.977Z,93.60
2019-03-17T05:35:46.863Z,93.89
2019-03-17T05:36:46.807Z,93.60
2019-03-17T05:37:46.766Z,94.37
2019-03-17T05:38:46.724Z,95.12
2019-03-17T05:39:46.695Z,95.12
2019-03-17T05:40:46.605Z,96.08
2019-03-17T05:41:46.545Z,95.98
2019-03-17T05:42:46.503Z,96.12
2019-03-17T05:43:46.463Z,95.75
2019-03-17T05:44:46.399Z,96.31
2019-03-17T05:45:46.402Z,96.03
2019-03-17T05:46:46.289Z,95.84
2019-03-17T05:47:46.221Z,96.98
2019-03-17T05:48:46.171Z,95.46
2019-03-17T05:49:46.139Z,95.36
2019-03-17T05:50:46.091Z,95.84
2019-03-17T05:51:46.037Z,95.65
2019-03-17T05:52:45.972Z,95.27
2019-03-17T05:53:45.910Z,95.08
2019-03-17T05:54:45.893Z,95.46
2019-03-17T05:55:45.912Z,95.03
2019-03-17T05:56:45.781Z,94.74
2019-03-17T05:57:45.711Z,94.74
2019-03-17T05:58:45.652Z,94.65
2019-03-17T05:59:45.591Z,94.27
2019-03-17T06:00:45.577Z,94.18
2019-03-17T06:01:45.484Z,93.98
2019-03-17T06:02:45.429Z,94.27
2019-03-17T06:03:45.379Z,94.37
2019-03-17T06:04:45.315Z,93.32
2019-03-17T06:05:45.292Z,92.84
2019-03-17T06:06:45.212Z,93.32
2019-03-17T06:07:45.170Z,92.94
2019-03-17T06:08:45.113Z,93.51
2019-03-17T06:09:45.055Z,93.04
2019-03-17T06:10:45.022Z,92.56
2019-03-17T06:11:44.940Z,92.27
2019-03-17T06:12:44.884Z,92.36
2019-03-17T06:13:44.839Z,92.56
2019-03-17T06:14:44.784Z,92.18
2019-03-17T06:15:44.747Z,92.08
2019-03-17T06:16:44.670Z,92.65
2019-03-17T06:17:44.616Z,92.18
2019-03-17T06:18:44.564Z,91.89
2019-03-17T06:19:44.508Z,91.70
2019-03-17T06:20:44.481Z,91.61
2019-03-17T06:21:44.414Z,91.42
2019-03-17T06:22:44.364Z,90.84
2019-03-17T06:23:44.295Z,90.75
2019-03-17T06:24:44.244Z,90.56
2019-03-17T06:25:44.245Z,90.75
2019-03-17T06:26:44.147Z,90.28
2019-03-17T06:27:44.078Z,90.84
2019-03-17T06:28:44.025Z,90.47
2019-03-17T06:29:44.002Z,89.89
2019-03-17T06:30:44.004Z,91.22
2019-03-17T06:31:43.884Z,90.18
2019-03-17T06:32:43.834Z,90.56
2019-03-17T06:33:43.772Z,90.75
2019-03-17T06:34:43.713Z,90.56
2019-03-17T06:35:43.683Z,90.66
2019-03-17T06:36:43.604Z,90.66
2019-03-17T06:37:43.548Z,90.47
2019-03-17T06:38:43.509Z,90.08
2019-03-17T06:39:43.441Z,90.08
2019-03-17T06:40:43.413Z,90.84
2019-03-17T06:41:43.343Z,90.08
2019-03-17T06:42:43.280Z,90.66
2019-03-17T06:43:43.256Z,90.08
2019-03-17T06:44:43.201Z,90.56
2019-03-17T06:45:43.151Z,90.75
2019-03-17T06:46:43.098Z,89.80
2019-03-17T06:47:43.024Z,90.08
2019-03-17T06:48:42.958Z,90.08
2019-03-17T06:49:42.916Z,89.32
2019-03-17T06:50:42.870Z,89.32
2019-03-17T06:51:42.789Z,89.61
2019-03-17T06:52:42.737Z,89.14
2019-03-17T06:53:55.442Z,89.51
2019-03-17T06:54:42.633Z,89.51
2019-03-17T06:55:42.630Z,89.14
2019-03-17T06:56:42.519Z,89.70
2019-03-17T06:57:42.463Z,89.14
2019-03-17T06:58:42.425Z,88.28
2019-03-17T06:59:42.357Z,88.85
2019-03-17T07:00:42.347Z,88.66
2019-03-17T07:01:42.250Z,88.66
2019-03-17T07:02:42.208Z,88.18
2019-03-17T07:03:42.140Z,88.18
2019-03-17T07:04:42.107Z,88.18
2019-03-17T07:05:42.060Z,88.46
2019-03-17T07:06:42.006Z,87.71
2019-03-17T07:07:44.369Z,88.46
2019-03-17T07:08:41.902Z,87.90
2019-03-17T07:09:41.838Z,87.80
2019-03-17T07:10:41.798Z,87.90
2019-03-17T07:11:41.734Z,87.90
2019-03-17T07:12:41.658Z,88.37
2019-03-17T07:13:41.605Z,88.18
2019-03-17T07:14:41.575Z,87.80
2019-03-17T07:15:41.493Z,87.32
2019-03-17T07:16:41.486Z,87.99
2019-03-17T07:17:41.456Z,87.61
2019-03-17T07:18:41.336Z,87.80
2019-03-17T07:19:41.279Z,87.80
2019-03-17T07:20:41.221Z,87.13
2019-03-17T07:21:41.212Z,87.23
2019-03-17T07:22:41.119Z,87.71
2019-03-17T07:23:41.064Z,87.23
2019-03-17T07:24:41.076Z,86.76
2019-03-17T07:25:40.965Z,86.66
2019-03-17T07:26:40.940Z,86.76
2019-03-17T07:27:40.867Z,86.57
2019-03-17T07:28:40.832Z,86.66
2019-03-17T07:29:40.745Z,87.13
2019-03-17T07:30:40.684Z,86.57
2019-03-17T07:31:40.652Z,86.47
2019-03-17T07:32:40.586Z,87.32
2019-03-17T07:33:40.544Z,86.85
2019-03-17T07:34:40.510Z,86.76
2019-03-17T07:35:40.431Z,87.32
2019-03-17T07:36:40.401Z,87.32
2019-03-17T07:37:40.304Z,86.66
2019-03-17T07:38:40.274Z,86.47
2019-03-17T07:39:40.200Z,86.57
2019-03-17T07:40:40.142Z,87.71
2019-03-17T07:41:40.168Z,87.42
2019-03-17T07:42:40.043Z,87.32
2019-03-17T07:43:39.987Z,86.94
2019-03-17T07:44:39.929Z,86.76
2019-03-17T07:45:39.881Z,86.85
2019-03-17T07:46:39.862Z,87.04
2019-03-17T07:47:39.845Z,86.76
2019-03-17T07:48:39.813Z,87.61
2019-03-17T07:49:39.667Z,87.13
2019-03-17T07:50:39.625Z,87.32
2019-03-17T07:51:39.592Z,87.13
2019-03-17T07:52:39.534Z,87.42
2019-03-17T07:53:39.475Z,86.57
2019-03-17T07:54:39.431Z,87.71
2019-03-17T07:55:39.349Z,87.71
2019-03-17T07:56:39.311Z,86.94
2019-03-17T07:57:39.243Z,86.94
2019-03-17T07:58:39.179Z,86.76
2019-03-17T07:59:39.133Z,86.57
2019-03-17T08:00:39.069Z,87.71
2019-03-17T08:01:39.031Z,86.57
2019-03-17T08:02:38.955Z,86.57
2019-03-17T08:03:38.904Z,86.57
2019-03-17T08:04:43.774Z,86.38
2019-03-17T08:05:38.817Z,86.76
2019-03-17T08:06:38.774Z,86.38
2019-03-17T08:07:38.712Z,86.66
2019-03-17T08:08:38.739Z,86.66
2019-03-17T08:09:38.615Z,86.47
2019-03-17T08:10:38.523Z,86.76
2019-03-17T08:11:38.513Z,86.76
2019-03-17T08:12:38.438Z,86.28
2019-03-17T08:13:38.386Z,86.28
2019-03-17T08:14:38.314Z,85.61
2019-03-17T08:15:38.302Z,85.61
2019-03-17T08:16:38.259Z,85.99
2019-03-17T08:17:38.202Z,85.52
2019-03-17T08:18:38.121Z,86.09
2019-03-17T08:19:38.050Z,85.71
2019-03-17T08:20:38.065Z,86.28
2019-03-17T08:21:37.964Z,86.33
2019-03-17T08:22:37.890Z,86.24
2019-03-17T08:23:37.912Z,88.61
2019-03-17T08:24:37.777Z,91.18
2019-03-17T08:25:37.737Z,89.80
2019-03-17T08:26:37.671Z,91.13
2019-03-17T08:27:37.685Z,91.71
2019-03-17T08:28:37.568Z,90.90
2019-03-17T08:29:37.511Z,89.67
2019-03-17T08:30:37.458Z,90.71
2019-03-17T08:31:37.411Z,89.86
2019-03-17T08:32:37.376Z,90.42
2019-03-17T08:33:37.293Z,89.57
2019-03-17T08:34:37.260Z,90.52
2019-03-17T08:35:37.198Z,89.95
2019-03-17T08:36:37.139Z,89.76
2019-03-17T08:37:37.109Z,89.76
2019-03-17T08:38:37.001Z,90.90
2019-03-17T08:39:36.953Z,90.52
2019-03-17T08:40:36.906Z,92.13
2019-03-17T08:41:37.765Z,91.19
2019-03-17T08:42:36.819Z,90.71
2019-03-17T08:43:36.740Z,90.99
2019-03-17T08:44:36.683Z,90.61
2019-03-17T08:45:36.630Z,89.67
2019-03-17T08:46:36.588Z,89.28
2019-03-17T08:47:36.558Z,90.05
2019-03-17T08:48:36.468Z,89.57
2019-03-17T08:49:36.427Z,89.28
2019-03-17T08:50:36.445Z,89.28
2019-03-17T08:51:36.440Z,88.71
2019-03-17T08:52:36.264Z,88.81
2019-03-17T08:53:36.176Z,88.43
2019-03-17T08:54:36.145Z,89.38
2019-03-17T08:55:36.069Z,89.00
2019-03-17T08:56:36.032Z,88.62
2019-03-17T08:57:35.993Z,87.57
2019-03-17T08:58:35.903Z,89.09
2019-03-17T08:59:35.855Z,89.38
2019-03-17T09:00:35.814Z,88.81
2019-03-17T09:01:35.734Z,88.05
2019-03-17T09:02:35.704Z,87.86
2019-03-17T09:03:35.636Z,90.61
2019-03-17T09:04:35.598Z,90.05
2019-03-17T09:05:35.549Z,88.34
2019-03-17T09:06:35.509Z,88.19
2019-03-17T09:07:35.426Z,89.23
2019-03-17T09:08:35.652Z,90.00
2019-03-17T09:09:35.346Z,88.38
2019-03-17T09:10:35.250Z,88.19
2019-03-17T09:11:35.246Z,88.38
2019-03-17T09:12:35.161Z,88.00
2019-03-17T09:13:35.091Z,89.42
2019-03-17T09:14:35.016Z,88.95
2019-03-17T09:15:34.991Z,88.67
2019-03-17T09:16:34.919Z,89.33
2019-03-17T09:17:34.899Z,89.14
2019-03-17T09:18:34.874Z,89.71
2019-03-17T09:19:34.774Z,89.90
2019-03-17T09:20:34.710Z,88.67
2019-03-17T09:21:34.661Z,88.19
2019-03-17T09:22:34.622Z,89.42
2019-03-17T09:23:34.525Z,88.85
2019-03-17T09:24:34.491Z,88.67
2019-03-17T09:25:34.486Z,89.42
2019-03-17T09:26:34.376Z,89.14
2019-03-17T09:27:34.380Z,89.23
2019-03-17T09:28:34.275Z,89.23
2019-03-17T09:29:34.214Z,89.23
2019-03-17T09:30:34.195Z,88.95
2019-03-17T09:31:34.103Z,89.04
2019-03-17T09:32:34.081Z,88.85
2019-03-17T09:33:34.050Z,88.38
2019-03-17T09:34:34.030Z,89.33
2019-03-17T09:35:33.926Z,89.04
2019-03-17T09:36:33.872Z,90.19
2019-03-17T09:37:33.800Z,89.71
2019-03-17T09:38:46.236Z,89.04
2019-03-17T09:39:33.686Z,89.33
2019-03-17T09:40:33.630Z,88.28
2019-03-17T09:41:33.569Z,90.00
2019-03-17T09:42:33.574Z,90.94
2019-03-17T09:43:33.478Z,90.66
2019-03-17T09:44:33.471Z,89.90
2019-03-17T09:45:33.376Z,92.08
2019-03-17T09:46:33.324Z,92.75
2019-03-17T09:47:33.354Z,91.33
2019-03-17T09:48:33.203Z,92.08
2019-03-17T09:49:33.363Z,93.41
2019-03-17T09:50:33.108Z,93.23
2019-03-17T09:51:33.037Z,92.46
2019-03-17T09:52:33.034Z,92.27
2019-03-17T09:53:32.968Z,92.66
2019-03-17T09:54:32.945Z,91.71
2019-03-17T09:55:32.836Z,92.75
2019-03-17T09:56:32.989Z,92.37
2019-03-17T09:57:32.739Z,91.71
2019-03-17T09:58:32.843Z,93.32
2019-03-17T09:59:32.593Z,93.41
2019-03-17T10:00:32.532Z,91.99
2019-03-17T10:01:32.715Z,92.08
2019-03-17T10:02:32.451Z,91.37
2019-03-17T10:03:32.560Z,91.47
2019-03-17T10:04:32.396Z,91.08
2019-03-17T10:05:32.269Z,93.55
2019-03-17T10:06:32.296Z,93.99
2019-03-17T10:07:32.168Z,93.99
2019-03-17T10:08:32.136Z,93.41
2019-03-17T10:09:33.229Z,94.13
2019-03-17T10:10:31.998Z,93.84
2019-03-17T10:11:31.952Z,93.08
2019-03-17T10:12:31.906Z,92.61
2019-03-17T10:13:31.859Z,92.41
2019-03-17T10:14:31.779Z,92.70
2019-03-17T10:15:31.736Z,93.37
2019-03-17T10:16:31.680Z,94.13
2019-03-17T10:17:31.618Z,92.99
2019-03-17T10:18:31.602Z,93.08
2019-03-17T10:19:31.521Z,92.70
2019-03-17T10:20:31.459Z,93.08
2019-03-17T10:21:31.405Z,92.03
2019-03-17T10:22:31.355Z,92.70
2019-03-17T10:23:31.321Z,93.75
2019-03-17T10:24:31.245Z,93.18
2019-03-17T10:25:31.194Z,92.89
2019-03-17T10:26:31.147Z,95.17
2019-03-17T10:27:31.098Z,92.80
2019-03-17T10:28:31.059Z,93.08
2019-03-17T10:29:31.083Z,92.89
2019-03-17T10:30:30.922Z,93.18
2019-03-17T10:31:30.885Z,92.99
2019-03-17T10:32:30.823Z,93.18
2019-03-17T10:33:30.792Z,95.75
2019-03-17T10:34:30.728Z,93.37
2019-03-17T10:35:30.673Z,93.08
2019-03-17T10:36:30.611Z,94.60
2019-03-17T10:37:30.566Z,92.89
2019-03-17T10:38:30.527Z,94.70
2019-03-17T10:39:30.452Z,93.27
2019-03-17T10:40:30.399Z,93.75
2019-03-17T10:41:30.368Z,94.42
2019-03-17T10:42:30.289Z,94.32
2019-03-17T10:43:30.273Z,94.13
2019-03-17T10:44:30.179Z,94.22
2019-03-17T10:45:30.132Z,94.60
2019-03-17T10:46:30.083Z,94.22
2019-03-17T10:47:30.015Z,93.75
2019-03-17T10:48:29.985Z,93.65
2019-03-17T10:49:29.912Z,94.22
2019-03-17T10:50:29.860Z,94.60
2019-03-17T10:51:29.804Z,93.60
2019-03-17T10:52:29.755Z,95.17
2019-03-17T10:53:29.725Z,93.98
2019-03-17T10:54:29.640Z,93.13
2019-03-17T10:55:29.668Z,94.56
2019-03-17T10:56:29.533Z,96.08
2019-03-17T10:57:29.473Z,92.65
2019-03-17T10:58:29.460Z,93.13
2019-03-17T10:59:29.384Z,94.18
2019-03-17T11:00:29.338Z,94.27
2019-03-17T11:01:29.262Z,94.37
2019-03-17T11:02:29.212Z,93.23
2019-03-17T11:03:29.201Z,93.60
2019-03-17T11:04:29.177Z,93.89
2019-03-17T11:05:29.051Z,94.08
2019-03-17T11:06:29.021Z,95.22
2019-03-17T11:07:28.944Z,94.42
2019-03-17T11:08:28.896Z,94.32
2019-03-17T11:09:28.879Z,94.13
2019-03-17T11:10:28.783Z,95.17
2019-03-17T11:11:28.754Z,94.22
2019-03-17T11:12:28.679Z,95.27
2019-03-17T11:13:28.632Z,94.13
2019-03-17T11:14:28.592Z,95.36
2019-03-17T11:15:28.515Z,96.12
2019-03-17T11:16:28.502Z,94.98
2019-03-17T11:17:28.403Z,93.75
2019-03-17T11:18:28.350Z,94.22
2019-03-17T11:19:28.449Z,93.55
2019-03-17T11:20:28.256Z,94.03
2019-03-17T11:21:28.200Z,93.65
2019-03-17T11:22:28.257Z,93.13
2019-03-17T11:23:28.108Z,94.22
2019-03-17T11:24:28.081Z,94.42
2019-03-17T11:25:27.981Z,94.70
2019-03-17T11:26:27.921Z,94.13
2019-03-17T11:27:27.875Z,95.56
2019-03-17T11:28:27.818Z,93.46
2019-03-17T11:29:27.816Z,94.13
2019-03-17T11:30:27.719Z,94.51
2019-03-17T11:31:27.658Z,93.51
2019-03-17T11:32:27.608Z,94.70
2019-03-17T11:33:27.562Z,93.94
2019-03-17T11:34:27.572Z,94.13
2019-03-17T11:35:27.437Z,93.94
2019-03-17T11:36:27.392Z,95.17
2019-03-17T11:37:27.336Z,93.65
2019-03-17T11:38:27.297Z,93.65
2019-03-17T11:39:37.135Z,94.03
2019-03-17T11:40:27.198Z,92.70
2019-03-17T11:41:27.136Z,94.42
2019-03-17T11:42:27.086Z,94.42
2019-03-17T11:43:27.048Z,93.84
2019-03-17T11:44:26.991Z,93.84
2019-03-17T11:45:26.912Z,92.32
2019-03-17T11:46:26.859Z,93.27
2019-03-17T11:47:26.808Z,92.22
2019-03-17T11:48:26.794Z,94.37
2019-03-17T11:49:26.718Z,94.60
2019-03-17T11:50:26.693Z,94.51
2019-03-17T11:51:26.595Z,93.60
2019-03-17T11:52:26.570Z,94.13
2019-03-17T11:53:26.482Z,94.13
2019-03-17T11:54:26.494Z,94.32
2019-03-17T11:55:26.381Z,94.42
2019-03-17T11:56:26.321Z,93.75
2019-03-17T11:57:26.281Z,94.70
2019-03-17T11:58:26.244Z,93.46
2019-03-17T11:59:26.233Z,92.89
2019-03-17T12:00:26.099Z,94.03
2019-03-17T12:01:26.054Z,93.55
2019-03-17T12:02:26.962Z,93.55
2019-03-17T12:03:25.937Z,93.37
2019-03-17T12:04:26.042Z,93.75
2019-03-17T12:05:25.834Z,93.70
2019-03-17T12:06:25.785Z,92.65
2019-03-17T12:07:25.721Z,92.22
2019-03-17T12:08:25.717Z,92.27
2019-03-17T12:09:29.344Z,92.08
2019-03-17T12:10:25.571Z,92.46
2019-03-17T12:11:25.518Z,93.89
2019-03-17T12:12:25.504Z,92.56
2019-03-17T12:13:25.411Z,93.60
2019-03-17T12:14:25.399Z,93.70
2019-03-17T12:15:25.331Z,92.65
2019-03-17T12:16:25.344Z,92.84
2019-03-17T12:17:25.191Z,92.56
2019-03-17T12:18:25.149Z,92.84
2019-03-17T12:19:25.113Z,92.84
2019-03-17T12:20:25.051Z,92.65
2019-03-17T12:21:25.163Z,92.65
2019-03-17T12:22:24.950Z,92.75
2019-03-17T12:23:24.877Z,90.94
2019-03-17T12:24:24.834Z,92.65
2019-03-17T12:25:24.790Z,91.56
2019-03-17T12:26:24.706Z,92.13
2019-03-17T12:27:24.668Z,91.08
2019-03-17T12:28:24.625Z,91.17
2019-03-17T12:29:24.551Z,90.56
2019-03-17T12:30:24.518Z,91.27
2019-03-17T12:31:24.466Z,91.08
2019-03-17T12:32:24.488Z,91.84
2019-03-17T12:33:24.358Z,92.99
2019-03-17T12:34:28.593Z,92.84
2019-03-17T12:35:24.260Z,92.99
2019-03-17T12:36:24.188Z,94.42
2019-03-17T12:37:24.322Z,94.98
2019-03-17T12:38:24.414Z,96.60
2019-03-17T12:39:24.312Z,95.27
2019-03-17T12:40:23.999Z,95.65
2019-03-17T12:41:23.916Z,94.51
2019-03-17T12:42:23.977Z,95.65
2019-03-17T12:43:23.800Z,94.32
2019-03-17T12:44:23.820Z,96.31
2019-03-17T12:45:23.730Z,95.56
2019-03-17T12:46:23.702Z,96.03
2019-03-17T12:47:23.591Z,94.42
2019-03-17T12:48:23.542Z,95.27
2019-03-17T12:49:23.491Z,94.79
2019-03-17T12:50:23.463Z,94.51
2019-03-17T12:51:23.430Z,93.08